sensor_id;sensor_type;location;lat;lon;timestamp;P1;durP1;ratioP1;P2;durP2;ratioP2
1412;SDS011;701;52.526;13.408;2023-09-30T00:02:24;6.95;;;1.15;;
1412;SDS011;701;52.526;13.408;2023-09-30T00:04:50;4.72;;;0.85;;
1412;SDS011;701;52.526;13.408;2023-09-30T00:07:16;7.27;;;1.00;;
1412;SDS011;701;52.526;13.408;2023-09-30T00:09:41;7.45;;;0.98;;
1412;SDS011;701;52.526;13.408;2023-09-30T00:12:07;7.17;;;1.10;;
1412;SDS011;701;52.526;13.408;2023-09-30T00:14:33;7.32;;;1.20;;
1412;SDS011;701;52.526;13.408;2023-09-30T00:16:59;8.37;;;1.63;;
1412;SDS011;701;52.526;13.408;2023-09-30T00:19:25;6.07;;;1.30;;
1412;SDS011;701;52.526;13.408;2023-09-30T00:21:51;7.20;;;1.20;;
1412;SDS011;701;52.526;13.408;2023-09-30T00:24:17;8.03;;;1.60;;
1412;SDS011;701;52.526;13.408;2023-09-30T00:26:42;9.23;;;1.50;;
1412;SDS011;701;52.526;13.408;2023-09-30T00:29:08;6.73;;;1.50;;
1412;SDS011;701;52.526;13.408;2023-09-30T00:31:35;10.07;;;1.63;;
1412;SDS011;701;52.526;13.408;2023-09-30T00:34:01;10.73;;;1.70;;
1412;SDS011;701;52.526;13.408;2023-09-30T00:36:27;7.47;;;1.80;;
1412;SDS011;701;52.526;13.408;2023-09-30T00:38:53;11.93;;;1.77;;
1412;SDS011;701;52.526;13.408;2023-09-30T00:41:19;8.82;;;1.35;;
1412;SDS011;701;52.526;13.408;2023-09-30T00:43:48;8.53;;;1.60;;
1412;SDS011;701;52.526;13.408;2023-09-30T00:46:17;7.50;;;1.85;;
1412;SDS011;701;52.526;13.408;2023-09-30T00:48:57;8.25;;;1.70;;
1412;SDS011;701;52.526;13.408;2023-09-30T00:51:24;10.68;;;1.40;;
1412;SDS011;701;52.526;13.408;2023-09-30T00:53:51;10.52;;;2.00;;
1412;SDS011;701;52.526;13.408;2023-09-30T00:56:19;8.23;;;1.83;;
1412;SDS011;701;52.526;13.408;2023-09-30T00:58:48;5.88;;;1.40;;
1412;SDS011;701;52.526;13.408;2023-09-30T01:01:16;8.43;;;1.63;;
1412;SDS011;701;52.526;13.408;2023-09-30T01:03:44;11.50;;;2.80;;
1412;SDS011;701;52.526;13.408;2023-09-30T01:06:11;7.18;;;2.20;;
1412;SDS011;701;52.526;13.408;2023-09-30T01:08:37;11.20;;;2.00;;
1412;SDS011;701;52.526;13.408;2023-09-30T01:11:03;13.23;;;1.95;;
1412;SDS011;701;52.526;13.408;2023-09-30T01:13:33;12.00;;;1.60;;
1412;SDS011;701;52.526;13.408;2023-09-30T01:16:06;10.35;;;1.90;;
1412;SDS011;701;52.526;13.408;2023-09-30T01:18:37;5.87;;;1.40;;
1412;SDS011;701;52.526;13.408;2023-09-30T01:21:04;9.02;;;1.80;;
1412;SDS011;701;52.526;13.408;2023-09-30T01:23:31;8.98;;;1.65;;
1412;SDS011;701;52.526;13.408;2023-09-30T01:26:01;8.43;;;1.50;;
1412;SDS011;701;52.526;13.408;2023-09-30T01:28:32;10.60;;;1.92;;
1412;SDS011;701;52.526;13.408;2023-09-30T01:30:58;9.30;;;2.03;;
1412;SDS011;701;52.526;13.408;2023-09-30T01:33:24;8.23;;;2.20;;
1412;SDS011;701;52.526;13.408;2023-09-30T01:35:50;6.65;;;1.50;;
1412;SDS011;701;52.526;13.408;2023-09-30T01:38:16;8.15;;;1.50;;
1412;SDS011;701;52.526;13.408;2023-09-30T01:40:41;10.50;;;1.70;;
1412;SDS011;701;52.526;13.408;2023-09-30T01:43:07;11.38;;;1.73;;
1412;SDS011;701;52.526;13.408;2023-09-30T01:45:33;9.40;;;1.70;;
1412;SDS011;701;52.526;13.408;2023-09-30T01:48:00;8.20;;;1.52;;
1412;SDS011;701;52.526;13.408;2023-09-30T01:50:27;9.82;;;1.70;;
1412;SDS011;701;52.526;13.408;2023-09-30T01:52:52;6.93;;;1.52;;
1412;SDS011;701;52.526;13.408;2023-09-30T01:55:18;8.98;;;1.70;;
1412;SDS011;701;52.526;13.408;2023-09-30T01:57:44;9.18;;;2.17;;
1412;SDS011;701;52.526;13.408;2023-09-30T02:00:10;8.80;;;1.77;;
1412;SDS011;701;52.526;13.408;2023-09-30T02:02:41;8.88;;;2.00;;
1412;SDS011;701;52.526;13.408;2023-09-30T02:05:07;13.00;;;1.83;;
1412;SDS011;701;52.526;13.408;2023-09-30T02:07:33;15.40;;;2.58;;
1412;SDS011;701;52.526;13.408;2023-09-30T02:10:00;9.48;;;1.80;;
1412;SDS011;701;52.526;13.408;2023-09-30T02:12:29;9.70;;;2.03;;
1412;SDS011;701;52.526;13.408;2023-09-30T02:14:55;16.13;;;2.25;;
1412;SDS011;701;52.526;13.408;2023-09-30T02:17:21;13.85;;;2.45;;
1412;SDS011;701;52.526;13.408;2023-09-30T02:19:47;10.32;;;1.67;;
1412;SDS011;701;52.526;13.408;2023-09-30T02:22:15;8.57;;;1.83;;
1412;SDS011;701;52.526;13.408;2023-09-30T02:24:41;8.67;;;1.90;;
1412;SDS011;701;52.526;13.408;2023-09-30T02:27:06;10.27;;;2.50;;
1412;SDS011;701;52.526;13.408;2023-09-30T02:29:33;14.15;;;2.00;;
1412;SDS011;701;52.526;13.408;2023-09-30T02:31:59;9.00;;;1.50;;
1412;SDS011;701;52.526;13.408;2023-09-30T02:34:26;15.03;;;2.40;;
1412;SDS011;701;52.526;13.408;2023-09-30T02:36:52;10.05;;;2.22;;
1412;SDS011;701;52.526;13.408;2023-09-30T02:39:20;9.30;;;2.17;;
1412;SDS011;701;52.526;13.408;2023-09-30T02:41:46;15.67;;;2.20;;
1412;SDS011;701;52.526;13.408;2023-09-30T02:44:14;10.88;;;2.25;;
1412;SDS011;701;52.526;13.408;2023-09-30T02:46:40;13.43;;;2.30;;
1412;SDS011;701;52.526;13.408;2023-09-30T02:49:06;11.10;;;2.00;;
1412;SDS011;701;52.526;13.408;2023-09-30T02:51:33;14.25;;;2.85;;
1412;SDS011;701;52.526;13.408;2023-09-30T02:53:58;10.70;;;2.20;;
1412;SDS011;701;52.526;13.408;2023-09-30T02:56:24;11.67;;;3.07;;
1412;SDS011;701;52.526;13.408;2023-09-30T02:58:52;7.60;;;1.98;;
1412;SDS011;701;52.526;13.408;2023-09-30T03:01:17;15.23;;;2.10;;
1412;SDS011;701;52.526;13.408;2023-09-30T03:03:44;10.77;;;2.50;;
1412;SDS011;701;52.526;13.408;2023-09-30T03:06:10;10.60;;;1.98;;
1412;SDS011;701;52.526;13.408;2023-09-30T03:08:36;13.65;;;2.30;;
1412;SDS011;701;52.526;13.408;2023-09-30T03:11:02;12.27;;;2.15;;
1412;SDS011;701;52.526;13.408;2023-09-30T03:13:30;15.23;;;2.53;;
1412;SDS011;701;52.526;13.408;2023-09-30T03:15:56;14.02;;;2.45;;
1412;SDS011;701;52.526;13.408;2023-09-30T03:18:22;15.15;;;2.17;;
1412;SDS011;701;52.526;13.408;2023-09-30T03:20:58;11.10;;;2.22;;
1412;SDS011;701;52.526;13.408;2023-09-30T03:23:33;14.48;;;2.10;;
1412;SDS011;701;52.526;13.408;2023-09-30T03:26:00;10.60;;;2.25;;
1412;SDS011;701;52.526;13.408;2023-09-30T03:28:26;15.52;;;2.60;;
1412;SDS011;701;52.526;13.408;2023-09-30T03:30:52;9.98;;;1.90;;
1412;SDS011;701;52.526;13.408;2023-09-30T03:33:18;14.70;;;2.50;;
1412;SDS011;701;52.526;13.408;2023-09-30T03:35:43;15.68;;;2.70;;
1412;SDS011;701;52.526;13.408;2023-09-30T03:38:10;11.45;;;2.45;;
1412;SDS011;701;52.526;13.408;2023-09-30T03:40:38;15.25;;;2.38;;
1412;SDS011;701;52.526;13.408;2023-09-30T03:43:05;15.55;;;2.17;;
1412;SDS011;701;52.526;13.408;2023-09-30T03:45:31;12.95;;;2.10;;
1412;SDS011;701;52.526;13.408;2023-09-30T03:48:00;13.00;;;2.50;;
1412;SDS011;701;52.526;13.408;2023-09-30T03:50:27;10.00;;;2.28;;
1412;SDS011;701;52.526;13.408;2023-09-30T03:53:01;12.60;;;2.78;;
1412;SDS011;701;52.526;13.408;2023-09-30T03:55:27;9.20;;;2.10;;
1412;SDS011;701;52.526;13.408;2023-09-30T03:57:55;13.55;;;2.20;;
1412;SDS011;701;52.526;13.408;2023-09-30T04:00:21;10.35;;;2.40;;
1412;SDS011;701;52.526;13.408;2023-09-30T04:02:47;14.33;;;2.57;;
1412;SDS011;701;52.526;13.408;2023-09-30T04:05:15;16.23;;;2.03;;
1412;SDS011;701;52.526;13.408;2023-09-30T04:07:42;11.45;;;2.67;;
1412;SDS011;701;52.526;13.408;2023-09-30T04:10:09;12.38;;;2.60;;
1412;SDS011;701;52.526;13.408;2023-09-30T04:12:35;12.05;;;2.40;;
1412;SDS011;701;52.526;13.408;2023-09-30T04:15:01;11.17;;;2.20;;
1412;SDS011;701;52.526;13.408;2023-09-30T04:17:28;11.80;;;2.47;;
1412;SDS011;701;52.526;13.408;2023-09-30T04:19:54;19.70;;;2.53;;
1412;SDS011;701;52.526;13.408;2023-09-30T04:22:20;11.30;;;2.10;;
1412;SDS011;701;52.526;13.408;2023-09-30T04:24:50;12.90;;;2.50;;
1412;SDS011;701;52.526;13.408;2023-09-30T04:27:17;11.55;;;2.65;;
1412;SDS011;701;52.526;13.408;2023-09-30T04:29:43;15.50;;;2.50;;
1412;SDS011;701;52.526;13.408;2023-09-30T04:32:08;17.38;;;3.10;;
1412;SDS011;701;52.526;13.408;2023-09-30T04:34:35;14.02;;;2.70;;
1412;SDS011;701;52.526;13.408;2023-09-30T04:37:01;12.77;;;2.30;;
1412;SDS011;701;52.526;13.408;2023-09-30T04:39:27;8.83;;;2.27;;
1412;SDS011;701;52.526;13.408;2023-09-30T04:41:52;10.80;;;2.55;;
1412;SDS011;701;52.526;13.408;2023-09-30T04:44:20;16.23;;;2.85;;
1412;SDS011;701;52.526;13.408;2023-09-30T04:46:46;14.07;;;2.73;;
1412;SDS011;701;52.526;13.408;2023-09-30T04:49:14;14.45;;;2.70;;
1412;SDS011;701;52.526;13.408;2023-09-30T04:51:40;13.60;;;2.58;;
1412;SDS011;701;52.526;13.408;2023-09-30T04:54:06;11.53;;;2.60;;
1412;SDS011;701;52.526;13.408;2023-09-30T04:56:35;14.43;;;2.72;;
1412;SDS011;701;52.526;13.408;2023-09-30T04:59:01;16.05;;;2.60;;
1412;SDS011;701;52.526;13.408;2023-09-30T05:01:27;12.85;;;2.25;;
1412;SDS011;701;52.526;13.408;2023-09-30T05:03:53;19.07;;;3.23;;
1412;SDS011;701;52.526;13.408;2023-09-30T05:06:19;14.15;;;2.78;;
1412;SDS011;701;52.526;13.408;2023-09-30T05:08:46;13.65;;;2.97;;
1412;SDS011;701;52.526;13.408;2023-09-30T05:11:13;16.85;;;3.47;;
1412;SDS011;701;52.526;13.408;2023-09-30T05:13:39;9.37;;;2.70;;
1412;SDS011;701;52.526;13.408;2023-09-30T05:16:04;11.35;;;2.63;;
1412;SDS011;701;52.526;13.408;2023-09-30T05:18:32;14.23;;;2.75;;
1412;SDS011;701;52.526;13.408;2023-09-30T05:20:58;14.18;;;2.83;;
1412;SDS011;701;52.526;13.408;2023-09-30T05:23:24;16.25;;;2.75;;
1412;SDS011;701;52.526;13.408;2023-09-30T05:25:50;12.68;;;2.95;;
1412;SDS011;701;52.526;13.408;2023-09-30T05:28:16;10.32;;;2.50;;
1412;SDS011;701;52.526;13.408;2023-09-30T05:30:42;16.53;;;2.87;;
1412;SDS011;701;52.526;13.408;2023-09-30T05:33:08;14.48;;;3.00;;
1412;SDS011;701;52.526;13.408;2023-09-30T05:35:39;16.73;;;2.63;;
1412;SDS011;701;52.526;13.408;2023-09-30T05:38:06;10.13;;;2.50;;
1412;SDS011;701;52.526;13.408;2023-09-30T05:40:32;15.73;;;2.80;;
1412;SDS011;701;52.526;13.408;2023-09-30T05:42:58;9.80;;;2.58;;
1412;SDS011;701;52.526;13.408;2023-09-30T05:45:25;8.77;;;2.45;;
1412;SDS011;701;52.526;13.408;2023-09-30T05:47:52;15.48;;;2.45;;
1412;SDS011;701;52.526;13.408;2023-09-30T05:50:19;13.82;;;2.45;;
1412;SDS011;701;52.526;13.408;2023-09-30T05:52:53;12.52;;;2.70;;
1412;SDS011;701;52.526;13.408;2023-09-30T05:55:20;17.15;;;2.83;;
1412;SDS011;701;52.526;13.408;2023-09-30T05:57:47;14.77;;;3.00;;
1412;SDS011;701;52.526;13.408;2023-09-30T06:00:14;10.80;;;2.70;;
1412;SDS011;701;52.526;13.408;2023-09-30T06:02:49;17.38;;;3.90;;
1412;SDS011;701;52.526;13.408;2023-09-30T06:05:16;13.45;;;3.08;;
1412;SDS011;701;52.526;13.408;2023-09-30T06:07:46;15.00;;;2.75;;
1412;SDS011;701;52.526;13.408;2023-09-30T06:10:12;17.85;;;2.40;;
1412;SDS011;701;52.526;13.408;2023-09-30T06:12:41;15.77;;;2.80;;
1412;SDS011;701;52.526;13.408;2023-09-30T06:15:07;12.35;;;2.88;;
1412;SDS011;701;52.526;13.408;2023-09-30T06:17:33;11.13;;;2.47;;
1412;SDS011;701;52.526;13.408;2023-09-30T06:19:59;14.27;;;2.47;;
1412;SDS011;701;52.526;13.408;2023-09-30T06:22:33;20.57;;;2.53;;
1412;SDS011;701;52.526;13.408;2023-09-30T06:24:59;12.32;;;2.65;;
1412;SDS011;701;52.526;13.408;2023-09-30T06:27:25;15.57;;;2.33;;
1412;SDS011;701;52.526;13.408;2023-09-30T06:29:51;11.13;;;2.53;;
1412;SDS011;701;52.526;13.408;2023-09-30T06:32:17;18.17;;;3.83;;
1412;SDS011;701;52.526;13.408;2023-09-30T06:34:43;17.10;;;2.80;;
1412;SDS011;701;52.526;13.408;2023-09-30T06:37:09;9.33;;;2.70;;
1412;SDS011;701;52.526;13.408;2023-09-30T06:39:35;14.40;;;2.90;;
1412;SDS011;701;52.526;13.408;2023-09-30T06:42:01;10.73;;;2.33;;
1412;SDS011;701;52.526;13.408;2023-09-30T06:44:26;17.83;;;3.00;;
1412;SDS011;701;52.526;13.408;2023-09-30T06:46:53;9.52;;;2.35;;
1412;SDS011;701;52.526;13.408;2023-09-30T06:49:20;15.88;;;2.72;;
1412;SDS011;701;52.526;13.408;2023-09-30T06:51:45;13.57;;;2.50;;
1412;SDS011;701;52.526;13.408;2023-09-30T06:54:12;17.13;;;2.90;;
1412;SDS011;701;52.526;13.408;2023-09-30T06:56:38;11.38;;;2.70;;
1412;SDS011;701;52.526;13.408;2023-09-30T06:59:04;14.38;;;2.60;;
1412;SDS011;701;52.526;13.408;2023-09-30T07:01:31;11.60;;;2.80;;
1412;SDS011;701;52.526;13.408;2023-09-30T07:03:57;16.15;;;2.97;;
1412;SDS011;701;52.526;13.408;2023-09-30T07:06:23;15.35;;;2.25;;
1412;SDS011;701;52.526;13.408;2023-09-30T07:08:50;10.65;;;2.28;;
1412;SDS011;701;52.526;13.408;2023-09-30T07:11:16;10.83;;;2.20;;
1412;SDS011;701;52.526;13.408;2023-09-30T07:13:42;11.60;;;2.53;;
1412;SDS011;701;52.526;13.408;2023-09-30T07:16:07;15.48;;;2.92;;
1412;SDS011;701;52.526;13.408;2023-09-30T07:18:33;9.40;;;2.43;;
1412;SDS011;701;52.526;13.408;2023-09-30T07:20:59;18.63;;;2.72;;
1412;SDS011;701;52.526;13.408;2023-09-30T07:23:25;12.90;;;2.43;;
1412;SDS011;701;52.526;13.408;2023-09-30T07:25:51;10.95;;;2.25;;
1412;SDS011;701;52.526;13.408;2023-09-30T07:28:16;9.35;;;2.50;;
1412;SDS011;701;52.526;13.408;2023-09-30T07:30:43;15.67;;;2.33;;
1412;SDS011;701;52.526;13.408;2023-09-30T07:33:09;15.02;;;3.00;;
1412;SDS011;701;52.526;13.408;2023-09-30T07:35:35;11.30;;;2.40;;
1412;SDS011;701;52.526;13.408;2023-09-30T07:38:04;13.27;;;3.00;;
1412;SDS011;701;52.526;13.408;2023-09-30T07:40:29;13.88;;;2.13;;
1412;SDS011;701;52.526;13.408;2023-09-30T07:42:55;15.83;;;2.40;;
1412;SDS011;701;52.526;13.408;2023-09-30T07:45:22;12.83;;;2.47;;
1412;SDS011;701;52.526;13.408;2023-09-30T07:47:48;15.07;;;2.70;;
1412;SDS011;701;52.526;13.408;2023-09-30T07:50:14;13.93;;;2.55;;
1412;SDS011;701;52.526;13.408;2023-09-30T07:52:40;10.55;;;2.20;;
1412;SDS011;701;52.526;13.408;2023-09-30T07:55:07;13.13;;;2.38;;
1412;SDS011;701;52.526;13.408;2023-09-30T07:57:34;12.93;;;2.13;;
1412;SDS011;701;52.526;13.408;2023-09-30T08:00:00;15.40;;;2.80;;
1412;SDS011;701;52.526;13.408;2023-09-30T08:02:34;11.43;;;2.50;;
1412;SDS011;701;52.526;13.408;2023-09-30T08:05:01;12.52;;;2.53;;
1412;SDS011;701;52.526;13.408;2023-09-30T08:07:28;18.05;;;3.08;;
1412;SDS011;701;52.526;13.408;2023-09-30T08:09:53;13.83;;;2.77;;
1412;SDS011;701;52.526;13.408;2023-09-30T08:12:19;11.68;;;2.22;;
1412;SDS011;701;52.526;13.408;2023-09-30T08:14:45;13.90;;;2.70;;
1412;SDS011;701;52.526;13.408;2023-09-30T08:17:11;14.82;;;2.40;;
1412;SDS011;701;52.526;13.408;2023-09-30T08:19:37;12.50;;;2.37;;
1412;SDS011;701;52.526;13.408;2023-09-30T08:22:05;13.82;;;2.35;;
1412;SDS011;701;52.526;13.408;2023-09-30T08:24:31;12.85;;;2.38;;
1412;SDS011;701;52.526;13.408;2023-09-30T08:26:57;14.00;;;2.33;;
1412;SDS011;701;52.526;13.408;2023-09-30T08:29:23;10.60;;;2.35;;
1412;SDS011;701;52.526;13.408;2023-09-30T08:31:49;12.97;;;2.13;;
1412;SDS011;701;52.526;13.408;2023-09-30T08:34:17;12.53;;;2.30;;
1412;SDS011;701;52.526;13.408;2023-09-30T08:36:46;13.63;;;2.88;;
1412;SDS011;701;52.526;13.408;2023-09-30T08:39:12;12.43;;;2.00;;
1412;SDS011;701;52.526;13.408;2023-09-30T08:41:38;10.10;;;2.42;;
1412;SDS011;701;52.526;13.408;2023-09-30T08:44:04;12.13;;;2.73;;
1412;SDS011;701;52.526;13.408;2023-09-30T08:46:31;10.43;;;1.98;;
1412;SDS011;701;52.526;13.408;2023-09-30T08:48:58;11.57;;;2.53;;
1412;SDS011;701;52.526;13.408;2023-09-30T08:51:28;12.77;;;2.15;;
1412;SDS011;701;52.526;13.408;2023-09-30T08:53:55;9.67;;;2.20;;
1412;SDS011;701;52.526;13.408;2023-09-30T08:56:27;11.30;;;2.17;;
1412;SDS011;701;52.526;13.408;2023-09-30T08:58:55;15.13;;;2.70;;
1412;SDS011;701;52.526;13.408;2023-09-30T09:01:24;12.60;;;2.38;;
1412;SDS011;701;52.526;13.408;2023-09-30T09:03:53;11.05;;;2.00;;
1412;SDS011;701;52.526;13.408;2023-09-30T09:06:23;12.57;;;1.90;;
1412;SDS011;701;52.526;13.408;2023-09-30T09:08:50;13.20;;;2.17;;
1412;SDS011;701;52.526;13.408;2023-09-30T09:11:17;14.88;;;2.17;;
1412;SDS011;701;52.526;13.408;2023-09-30T09:13:50;17.55;;;2.72;;
1412;SDS011;701;52.526;13.408;2023-09-30T09:16:22;12.13;;;2.30;;
1412;SDS011;701;52.526;13.408;2023-09-30T09:18:51;13.00;;;2.07;;
1412;SDS011;701;52.526;13.408;2023-09-30T09:21:20;10.02;;;2.30;;
1412;SDS011;701;52.526;13.408;2023-09-30T09:23:48;9.23;;;2.10;;
1412;SDS011;701;52.526;13.408;2023-09-30T09:28:57;13.13;;;2.05;;
1412;SDS011;701;52.526;13.408;2023-09-30T09:31:42;9.40;;;2.23;;
1412;SDS011;701;52.526;13.408;2023-09-30T09:34:14;10.90;;;2.58;;
1412;SDS011;701;52.526;13.408;2023-09-30T09:36:41;10.25;;;2.58;;
1412;SDS011;701;52.526;13.408;2023-09-30T09:39:11;14.18;;;2.42;;
1412;SDS011;701;52.526;13.408;2023-09-30T09:41:53;16.15;;;2.25;;
1412;SDS011;701;52.526;13.408;2023-09-30T09:44:23;8.87;;;2.27;;
1412;SDS011;701;52.526;13.408;2023-09-30T09:46:52;12.48;;;2.30;;
1412;SDS011;701;52.526;13.408;2023-09-30T09:49:19;13.13;;;1.92;;
1412;SDS011;701;52.526;13.408;2023-09-30T09:51:45;18.60;;;3.25;;
1412;SDS011;701;52.526;13.408;2023-09-30T09:54:13;7.57;;;1.80;;
1412;SDS011;701;52.526;13.408;2023-09-30T09:56:41;10.20;;;2.40;;
1412;SDS011;701;52.526;13.408;2023-09-30T09:59:09;10.00;;;2.20;;
1412;SDS011;701;52.526;13.408;2023-09-30T10:01:38;15.85;;;2.20;;
1412;SDS011;701;52.526;13.408;2023-09-30T10:04:06;11.85;;;2.47;;
1412;SDS011;701;52.526;13.408;2023-09-30T10:06:33;13.37;;;2.47;;
1412;SDS011;701;52.526;13.408;2023-09-30T10:09:07;13.18;;;2.60;;
1412;SDS011;701;52.526;13.408;2023-09-30T10:11:36;10.95;;;2.35;;
1412;SDS011;701;52.526;13.408;2023-09-30T10:14:05;9.68;;;2.30;;
1412;SDS011;701;52.526;13.408;2023-09-30T10:21:39;9.50;;;2.30;;
1412;SDS011;701;52.526;13.408;2023-09-30T10:36:01;10.90;;;1.98;;
1412;SDS011;701;52.526;13.408;2023-09-30T10:40:50;12.13;;;1.48;;
1412;SDS011;701;52.526;13.408;2023-09-30T10:43:28;11.10;;;2.10;;
1412;SDS011;701;52.526;13.408;2023-09-30T10:45:58;7.90;;;1.73;;
1412;SDS011;701;52.526;13.408;2023-09-30T10:50:57;7.10;;;1.63;;
1412;SDS011;701;52.526;13.408;2023-09-30T10:53:25;10.95;;;2.10;;
1412;SDS011;701;52.526;13.408;2023-09-30T10:58:38;11.95;;;2.30;;
1412;SDS011;701;52.526;13.408;2023-09-30T11:01:04;9.98;;;1.90;;
1412;SDS011;701;52.526;13.408;2023-09-30T11:03:30;9.50;;;1.83;;
1412;SDS011;701;52.526;13.408;2023-09-30T11:05:56;9.90;;;1.73;;
1412;SDS011;701;52.526;13.408;2023-09-30T11:08:21;8.67;;;2.27;;
1412;SDS011;701;52.526;13.408;2023-09-30T11:10:49;7.73;;;2.00;;
1412;SDS011;701;52.526;13.408;2023-09-30T11:13:16;8.90;;;2.17;;
1412;SDS011;701;52.526;13.408;2023-09-30T11:15:45;9.30;;;2.20;;
1412;SDS011;701;52.526;13.408;2023-09-30T11:18:14;11.70;;;1.45;;
1412;SDS011;701;52.526;13.408;2023-09-30T11:20:44;9.00;;;2.22;;
1412;SDS011;701;52.526;13.408;2023-09-30T11:23:13;9.90;;;1.93;;
1412;SDS011;701;52.526;13.408;2023-09-30T11:25:41;7.85;;;1.67;;
1412;SDS011;701;52.526;13.408;2023-09-30T11:28:16;8.20;;;1.70;;
1412;SDS011;701;52.526;13.408;2023-09-30T11:30:56;8.48;;;1.95;;
1412;SDS011;701;52.526;13.408;2023-09-30T11:33:23;7.63;;;1.90;;
1412;SDS011;701;52.526;13.408;2023-09-30T11:35:57;10.35;;;2.00;;
1412;SDS011;701;52.526;13.408;2023-09-30T11:38:26;8.13;;;1.77;;
1412;SDS011;701;52.526;13.408;2023-09-30T11:43:29;10.77;;;2.00;;
1412;SDS011;701;52.526;13.408;2023-09-30T11:46:08;9.73;;;1.87;;
1412;SDS011;701;52.526;13.408;2023-09-30T11:48:36;11.27;;;2.15;;
1412;SDS011;701;52.526;13.408;2023-09-30T11:51:03;10.15;;;2.05;;
1412;SDS011;701;52.526;13.408;2023-09-30T11:53:30;11.57;;;2.13;;
1412;SDS011;701;52.526;13.408;2023-09-30T11:55:59;9.48;;;1.90;;
1412;SDS011;701;52.526;13.408;2023-09-30T11:58:27;12.63;;;1.70;;
1412;SDS011;701;52.526;13.408;2023-09-30T12:00:54;9.25;;;1.85;;
1412;SDS011;701;52.526;13.408;2023-09-30T12:03:20;8.23;;;1.73;;
1412;SDS011;701;52.526;13.408;2023-09-30T12:05:47;9.48;;;1.73;;
1412;SDS011;701;52.526;13.408;2023-09-30T12:08:13;10.65;;;1.60;;
1412;SDS011;701;52.526;13.408;2023-09-30T12:10:39;6.03;;;1.47;;
1412;SDS011;701;52.526;13.408;2023-09-30T12:13:05;8.95;;;1.73;;
1412;SDS011;701;52.526;13.408;2023-09-30T12:15:31;8.65;;;1.60;;
1412;SDS011;701;52.526;13.408;2023-09-30T12:17:57;8.00;;;1.70;;
1412;SDS011;701;52.526;13.408;2023-09-30T12:20:23;12.52;;;1.70;;
1412;SDS011;701;52.526;13.408;2023-09-30T12:22:50;8.38;;;1.65;;
1412;SDS011;701;52.526;13.408;2023-09-30T12:25:17;10.45;;;1.95;;
1412;SDS011;701;52.526;13.408;2023-09-30T12:27:47;7.83;;;1.70;;
1412;SDS011;701;52.526;13.408;2023-09-30T12:30:13;9.90;;;1.63;;
1412;SDS011;701;52.526;13.408;2023-09-30T12:32:39;8.95;;;1.67;;
1412;SDS011;701;52.526;13.408;2023-09-30T12:35:06;10.85;;;1.95;;
1412;SDS011;701;52.526;13.408;2023-09-30T12:37:32;9.80;;;1.40;;
1412;SDS011;701;52.526;13.408;2023-09-30T12:39:57;9.32;;;1.65;;
1412;SDS011;701;52.526;13.408;2023-09-30T12:42:23;6.55;;;1.65;;
1412;SDS011;701;52.526;13.408;2023-09-30T12:44:50;5.88;;;1.52;;
1412;SDS011;701;52.526;13.408;2023-09-30T12:47:15;9.10;;;1.87;;
1412;SDS011;701;52.526;13.408;2023-09-30T12:49:41;10.57;;;2.30;;
1412;SDS011;701;52.526;13.408;2023-09-30T12:52:07;9.57;;;2.13;;
1412;SDS011;701;52.526;13.408;2023-09-30T12:54:33;7.85;;;1.67;;
1412;SDS011;701;52.526;13.408;2023-09-30T12:56:59;8.02;;;1.70;;
1412;SDS011;701;52.526;13.408;2023-09-30T12:59:25;8.10;;;1.87;;
1412;SDS011;701;52.526;13.408;2023-09-30T13:01:51;6.03;;;1.45;;
1412;SDS011;701;52.526;13.408;2023-09-30T13:04:17;6.05;;;1.63;;
1412;SDS011;701;52.526;13.408;2023-09-30T13:06:43;10.50;;;1.67;;
1412;SDS011;701;52.526;13.408;2023-09-30T13:09:10;7.75;;;1.67;;
1412;SDS011;701;52.526;13.408;2023-09-30T13:11:37;8.10;;;1.93;;
1412;SDS011;701;52.526;13.408;2023-09-30T13:14:06;8.15;;;1.90;;
1412;SDS011;701;52.526;13.408;2023-09-30T13:16:31;8.90;;;1.52;;
1412;SDS011;701;52.526;13.408;2023-09-30T13:18:57;7.70;;;1.80;;
1412;SDS011;701;52.526;13.408;2023-09-30T13:21:23;7.72;;;1.58;;
1412;SDS011;701;52.526;13.408;2023-09-30T13:23:49;11.27;;;1.80;;
1412;SDS011;701;52.526;13.408;2023-09-30T13:26:14;6.70;;;1.70;;
1412;SDS011;701;52.526;13.408;2023-09-30T13:28:40;8.57;;;1.90;;
1412;SDS011;701;52.526;13.408;2023-09-30T13:31:06;5.57;;;1.40;;
1412;SDS011;701;52.526;13.408;2023-09-30T13:33:32;8.40;;;1.90;;
1412;SDS011;701;52.526;13.408;2023-09-30T13:35:58;9.10;;;1.60;;
1412;SDS011;701;52.526;13.408;2023-09-30T13:38:24;5.80;;;1.40;;
1412;SDS011;701;52.526;13.408;2023-09-30T13:40:49;7.22;;;1.40;;
1412;SDS011;701;52.526;13.408;2023-09-30T13:43:15;5.77;;;1.37;;
1412;SDS011;701;52.526;13.408;2023-09-30T13:45:41;8.02;;;1.40;;
1412;SDS011;701;52.526;13.408;2023-09-30T13:48:07;8.33;;;1.87;;
1412;SDS011;701;52.526;13.408;2023-09-30T13:50:33;7.03;;;1.83;;
1412;SDS011;701;52.526;13.408;2023-09-30T13:52:59;6.53;;;1.90;;
1412;SDS011;701;52.526;13.408;2023-09-30T13:55:26;7.22;;;1.50;;
1412;SDS011;701;52.526;13.408;2023-09-30T13:57:52;9.23;;;1.43;;
1412;SDS011;701;52.526;13.408;2023-09-30T14:00:17;9.52;;;1.83;;
1412;SDS011;701;52.526;13.408;2023-09-30T14:02:43;7.00;;;1.30;;
1412;SDS011;701;52.526;13.408;2023-09-30T14:05:10;10.00;;;1.40;;
1412;SDS011;701;52.526;13.408;2023-09-30T14:07:38;6.97;;;1.60;;
1412;SDS011;701;52.526;13.408;2023-09-30T14:10:08;7.78;;;1.48;;
1412;SDS011;701;52.526;13.408;2023-09-30T14:12:35;11.23;;;1.80;;
1412;SDS011;701;52.526;13.408;2023-09-30T14:15:02;8.90;;;1.80;;
1412;SDS011;701;52.526;13.408;2023-09-30T14:17:30;7.35;;;1.55;;
1412;SDS011;701;52.526;13.408;2023-09-30T14:19:57;6.55;;;1.50;;
1412;SDS011;701;52.526;13.408;2023-09-30T14:22:22;10.60;;;1.50;;
1412;SDS011;701;52.526;13.408;2023-09-30T14:24:48;8.23;;;1.30;;
1412;SDS011;701;52.526;13.408;2023-09-30T14:27:14;9.05;;;1.48;;
1412;SDS011;701;52.526;13.408;2023-09-30T14:29:40;7.60;;;1.43;;
1412;SDS011;701;52.526;13.408;2023-09-30T14:32:07;8.38;;;1.63;;
1412;SDS011;701;52.526;13.408;2023-09-30T14:34:32;8.13;;;1.83;;
1412;SDS011;701;52.526;13.408;2023-09-30T14:36:58;5.70;;;1.37;;
1412;SDS011;701;52.526;13.408;2023-09-30T14:39:24;8.30;;;1.58;;
1412;SDS011;701;52.526;13.408;2023-09-30T14:41:50;6.63;;;1.53;;
1412;SDS011;701;52.526;13.408;2023-09-30T14:44:15;11.27;;;2.45;;
1412;SDS011;701;52.526;13.408;2023-09-30T14:46:42;6.68;;;1.10;;
1412;SDS011;701;52.526;13.408;2023-09-30T14:49:09;6.90;;;1.57;;
1412;SDS011;701;52.526;13.408;2023-09-30T14:51:35;8.48;;;1.20;;
1412;SDS011;701;52.526;13.408;2023-09-30T14:54:04;8.00;;;1.63;;
1412;SDS011;701;52.526;13.408;2023-09-30T14:56:30;6.72;;;1.40;;
1412;SDS011;701;52.526;13.408;2023-09-30T14:58:56;9.27;;;1.43;;
1412;SDS011;701;52.526;13.408;2023-09-30T15:01:22;9.00;;;1.30;;
1412;SDS011;701;52.526;13.408;2023-09-30T15:03:48;6.97;;;1.33;;
1412;SDS011;701;52.526;13.408;2023-09-30T15:06:14;9.00;;;1.20;;
1412;SDS011;701;52.526;13.408;2023-09-30T15:08:40;5.47;;;1.13;;
1412;SDS011;701;52.526;13.408;2023-09-30T15:11:11;8.97;;;1.20;;
1412;SDS011;701;52.526;13.408;2023-09-30T15:13:40;10.43;;;1.40;;
1412;SDS011;701;52.526;13.408;2023-09-30T15:16:14;6.85;;;1.50;;
1412;SDS011;701;52.526;13.408;2023-09-30T15:18:43;5.32;;;1.20;;
1412;SDS011;701;52.526;13.408;2023-09-30T15:21:11;6.97;;;1.60;;
1412;SDS011;701;52.526;13.408;2023-09-30T15:23:36;8.03;;;1.30;;
1412;SDS011;701;52.526;13.408;2023-09-30T15:26:03;10.02;;;1.42;;
1412;SDS011;701;52.526;13.408;2023-09-30T15:28:28;6.82;;;1.92;;
1412;SDS011;701;52.526;13.408;2023-09-30T15:30:54;8.30;;;1.70;;
1412;SDS011;701;52.526;13.408;2023-09-30T15:33:23;8.68;;;1.40;;
1412;SDS011;701;52.526;13.408;2023-09-30T15:35:49;6.72;;;1.20;;
1412;SDS011;701;52.526;13.408;2023-09-30T15:38:15;6.17;;;1.40;;